createdAt,value
2022-10-05T00:00:36.253Z,100350.22
2022-10-05T00:03:27.264Z,100352.81
2022-10-05T00:06:11.967Z,100362.28
2022-10-05T00:08:55.451Z,100370.97
2022-10-05T00:11:42.131Z,100364.06
2022-10-05T00:17:50.365Z,100360.63
2022-10-05T00:23:24.144Z,100378.84
2022-10-05T00:26:13.215Z,100369.31
2022-10-05T00:28:56.569Z,100366.69
2022-10-05T00:31:52.682Z,100369.28
2022-10-05T00:34:32.287Z,100372.72
2022-10-05T00:37:35.880Z,100374.47
2022-10-05T00:40:38.920Z,100378.81
2022-10-05T00:43:39.580Z,100391.81
2022-10-05T00:46:27.350Z,100377.97
2022-10-05T00:49:23.627Z,100384.03
2022-10-05T00:52:11.293Z,100382.25
2022-10-05T00:55:06.256Z,100391.81
2022-10-05T00:58:12.991Z,100348.53
2022-10-05T01:01:20.456Z,100405.66
2022-10-05T01:04:01.878Z,100389.03
2022-10-05T01:06:49.045Z,100391.56
2022-10-05T01:09:45.338Z,100393.41
2022-10-05T01:12:48.667Z,100393.50
2022-10-05T01:15:46.992Z,100383.13
2022-10-05T01:18:35.488Z,100390.06
2022-10-05T01:21:29.300Z,100370.97
2022-10-05T01:24:49.961Z,100332.84
2022-10-05T01:28:07.579Z,100379.53
2022-10-05T01:30:50.451Z,100376.88
2022-10-05T01:33:38.233Z,100372.47
2022-10-05T01:36:40.260Z,100370.75
2022-10-05T01:39:23.330Z,100377.72
2022-10-05T01:42:11.004Z,100363.97
2022-10-05T01:45:06.187Z,100359.63
2022-10-05T01:51:12.513Z,100361.28
2022-10-05T01:54:09.954Z,100358.63
2022-10-05T02:00:23.267Z,100376.84
2022-10-05T02:03:34.318Z,100341.47
2022-10-05T02:06:17.620Z,100385.56
2022-10-05T02:09:01.419Z,100371.75
2022-10-05T02:11:43.123Z,100314.72
2022-10-05T02:14:32.363Z,100379.53
2022-10-05T02:20:24.273Z,100379.53
2022-10-05T02:23:07.344Z,100379.53
2022-10-05T02:29:13.033Z,100331.00
2022-10-05T02:34:51.226Z,100374.34
2022-10-05T02:38:17.655Z,100378.72
2022-10-05T02:41:11.166Z,100373.59
2022-10-05T02:44:12.365Z,100376.22
2022-10-05T02:47:11.113Z,100374.50
2022-10-05T02:50:00.810Z,100378.84
2022-10-05T02:53:00.764Z,100367.56
2022-10-05T02:55:56.751Z,100369.28
2022-10-05T02:59:22.581Z,100369.28
2022-10-05T03:02:21.865Z,100372.72
2022-10-05T03:05:05.006Z,100369.25
2022-10-05T03:08:00.920Z,100383.97
2022-10-05T03:16:58.609Z,100355.44
2022-10-05T03:20:04.718Z,100380.47
2022-10-05T03:22:57.263Z,100367.53
2022-10-05T03:25:57.007Z,100384.84
2022-10-05T03:28:41.082Z,100393.50
2022-10-05T03:31:37.432Z,100366.66
2022-10-05T03:34:27.440Z,100385.72
2022-10-05T03:37:15.614Z,100393.50
2022-10-05T03:40:28.011Z,100388.31
2022-10-05T03:43:41.894Z,100398.72
2022-10-05T03:46:39.038Z,100402.19
2022-10-05T03:49:39.019Z,100401.31
2022-10-05T03:52:19.902Z,100412.59
2022-10-05T03:55:03.791Z,100403.94
2022-10-05T03:57:48.406Z,100388.34
2022-10-05T04:00:32.826Z,100424.69
2022-10-05T04:03:37.030Z,100422.91
2022-10-05T04:06:20.277Z,100428.16
2022-10-05T04:09:27.474Z,100435.16
2022-10-05T04:12:23.037Z,100439.44
2022-10-05T04:15:07.085Z,100433.38
2022-10-05T04:18:10.377Z,100439.44
2022-10-05T04:21:03.202Z,100445.53
2022-10-05T04:24:09.722Z,100437.72
2022-10-05T04:27:00.498Z,100418.66
2022-10-05T04:29:44.603Z,100370.16
2022-10-05T04:32:45.226Z,100407.38
2022-10-05T04:36:13.302Z,100405.56
2022-10-05T04:39:14.496Z,100407.28
2022-10-05T04:42:08.852Z,100406.28
2022-10-05T04:45:26.835Z,100403.63
2022-10-05T04:48:43.870Z,100407.00
2022-10-05T04:51:41.247Z,100399.06
2022-10-05T04:54:53.435Z,100408.50
2022-10-05T04:57:42.335Z,100404.81
2022-10-05T05:01:08.048Z,100406.34
2022-10-05T05:04:42.452Z,100414.69
2022-10-05T05:11:20.089Z,100385.59
2022-10-05T05:15:06.469Z,100410.28
2022-10-05T05:21:48.960Z,100419.34
2022-10-05T05:27:54.822Z,100424.31
2022-10-05T05:30:52.939Z,100419.34
2022-10-05T05:33:56.952Z,100419.47
2022-10-05T05:37:04.166Z,100425.00
2022-10-05T05:39:43.851Z,100413.19
2022-10-05T05:42:28.339Z,100419.34
2022-10-05T05:45:27.820Z,100426.34
2022-10-05T05:51:45.966Z,100425.59
2022-10-05T05:54:41.747Z,100429.13
2022-10-05T05:57:28.349Z,100434.59
2022-10-05T06:00:13.732Z,100397.41
2022-10-05T06:03:18.631Z,100391.44
2022-10-05T06:06:02.360Z,100450.31
2022-10-05T06:08:49.756Z,100453.78
2022-10-05T06:11:35.975Z,100461.63
2022-10-05T06:14:21.898Z,100385.41
2022-10-05T06:17:07.228Z,100448.59
2022-10-05T06:19:59.925Z,100465.03
2022-10-05T06:22:57.350Z,100463.50
2022-10-05T06:25:57.050Z,100466.16
2022-10-05T06:28:42.546Z,100471.41
2022-10-05T06:31:45.238Z,100472.28
2022-10-05T06:34:49.788Z,100382.25
2022-10-05T06:37:56.401Z,100476.66
2022-10-05T06:41:15.569Z,100476.69
2022-10-05T06:44:18.344Z,100474.94
2022-10-05T06:47:24.333Z,100487.09
2022-10-05T06:50:08.537Z,100467.19
2022-10-05T06:53:05.496Z,100488.84
2022-10-05T06:56:09.316Z,100499.25
2022-10-05T06:58:58.097Z,100502.72
2022-10-05T07:01:47.832Z,100481.91
2022-10-05T07:04:51.390Z,100494.88
2022-10-05T07:07:38.565Z,100496.66
2022-10-05T07:10:44.754Z,100501.88
2022-10-05T07:17:56.663Z,100494.06
2022-10-05T07:20:45.635Z,100501.00
2022-10-05T07:23:55.684Z,100499.25
2022-10-05T07:26:55.562Z,100507.03
2022-10-05T07:29:55.909Z,100500.13
2022-10-05T07:32:39.819Z,100507.94
2022-10-05T07:38:59.465Z,100506.19
2022-10-05T07:42:22.280Z,100422.16
2022-10-05T07:45:05.459Z,100518.31
2022-10-05T07:47:58.912Z,100471.47
2022-10-05T07:51:13.552Z,100520.03
2022-10-05T07:54:08.401Z,100535.66
2022-10-05T07:57:01.901Z,100539.09
2022-10-05T08:02:47.552Z,100537.34
2022-10-05T08:05:44.127Z,100543.38
2022-10-05T08:08:46.043Z,100509.59
2022-10-05T08:11:31.763Z,100549.44
2022-10-05T08:14:16.668Z,100553.75
2022-10-05T08:16:57.327Z,100563.25
2022-10-05T08:19:46.568Z,100564.97
2022-10-05T08:22:32.945Z,100554.47
2022-10-05T08:29:25.859Z,100548.25
2022-10-05T08:32:11.849Z,100561.13
2022-10-05T08:34:57.769Z,100586.19
2022-10-05T08:37:44.530Z,100557.44
2022-10-05T08:40:57.753Z,100593.81
2022-10-05T08:44:01.495Z,100544.22
2022-10-05T08:47:19.390Z,100600.59
2022-10-05T08:50:41.348Z,100603.88
2022-10-05T08:53:50.072Z,100535.97
2022-10-05T08:56:53.549Z,100614.72
2022-10-05T08:59:57.831Z,100612.78
2022-10-05T09:02:51.824Z,100582.97
2022-10-05T09:06:14.309Z,100618.41
2022-10-05T09:09:41.590Z,100639.03
2022-10-05T09:13:00.389Z,100626.78
2022-10-05T09:16:21.333Z,100623.13
2022-10-05T09:19:30.915Z,100629.78
2022-10-05T09:22:22.914Z,100629.72
2022-10-05T09:25:18.903Z,100597.22
2022-10-05T09:28:14.438Z,100632.88
2022-10-05T09:31:09.645Z,100636.16
2022-10-05T09:34:27.547Z,100643.19
2022-10-05T09:37:46.837Z,100636.25
2022-10-05T09:40:59.288Z,100650.28
2022-10-05T09:44:28.549Z,100641.03
2022-10-05T09:47:41.225Z,100643.81
2022-10-05T09:55:19.575Z,100638.63
2022-10-05T09:58:35.933Z,100595.16
2022-10-05T10:01:39.074Z,100630.53
2022-10-05T10:04:49.727Z,100646.34
2022-10-05T10:08:02.190Z,100638.59
2022-10-05T10:11:05.800Z,100642.00
2022-10-05T10:14:19.526Z,100645.53
2022-10-05T10:17:19.877Z,100633.28
2022-10-05T10:20:38.597Z,100635.16
2022-10-05T10:27:29.578Z,100647.28
2022-10-05T10:31:11.171Z,100644.59
2022-10-05T10:34:54.499Z,100645.34
2022-10-05T10:38:06.784Z,100645.06
2022-10-05T10:41:15.430Z,100642.41
2022-10-05T10:44:29.672Z,100649.41
2022-10-05T10:50:28.311Z,100637.34
2022-10-05T10:53:21.439Z,100643.22
2022-10-05T10:56:30.600Z,100599.56
2022-10-05T10:59:52.063Z,100638.50
2022-10-05T11:03:11.142Z,100635.84
2022-10-05T11:06:17.183Z,100634.00
2022-10-05T11:09:19.480Z,100619.31
2022-10-05T11:15:56.308Z,100623.88
2022-10-05T11:19:01.786Z,100610.09
2022-10-05T11:22:02.525Z,100618.03
2022-10-05T11:25:25.571Z,100619.78
2022-10-05T11:28:45.003Z,100620.72
2022-10-05T11:31:57.012Z,100622.56
2022-10-05T11:35:18.969Z,100619.28
2022-10-05T11:38:21.265Z,100615.06
2022-10-05T11:41:43.246Z,100612.63
2022-10-05T11:44:55.952Z,100614.41
2022-10-05T11:48:14.053Z,100584.03
2022-10-05T11:51:13.653Z,100608.47
2022-10-05T11:54:05.144Z,100586.78
2022-10-05T11:56:44.665Z,100584.34
2022-10-05T11:59:53.431Z,100573.13
2022-10-05T12:03:17.858Z,100591.41
2022-10-05T12:06:11.505Z,100585.41
2022-10-05T12:09:04.805Z,100595.09
2022-10-05T12:12:23.089Z,100526.53
2022-10-05T12:15:14.569Z,100591.78
2022-10-05T12:18:06.186Z,100589.31
2022-10-05T12:20:55.957Z,100592.75
2022-10-05T12:24:00.294Z,100594.56
2022-10-05T12:27:06.731Z,100603.28
2022-10-05T12:30:09.959Z,100599.78
2022-10-05T12:33:11.526Z,100601.44
2022-10-05T12:36:07.177Z,100576.97
2022-10-05T12:39:04.032Z,100579.34
2022-10-05T12:41:57.809Z,100611.25
2022-10-05T12:44:56.952Z,100611.13
2022-10-05T12:47:54.422Z,100614.50
2022-10-05T12:51:21.835Z,100616.84
2022-10-05T12:54:17.006Z,100627.78
2022-10-05T12:57:12.730Z,100636.41
2022-10-05T13:00:00.197Z,100631.28
2022-10-05T13:09:25.129Z,100634.06
2022-10-05T13:12:16.010Z,100642.88
2022-10-05T13:15:16.501Z,100643.84
2022-10-05T13:18:10.352Z,100640.41
2022-10-05T13:21:01.921Z,100637.03
2022-10-05T13:24:10.225Z,100643.25
2022-10-05T13:26:55.849Z,100637.19
2022-10-05T13:29:51.057Z,100631.97
2022-10-05T13:32:43.467Z,100626.69
2022-10-05T13:35:49.081Z,100628.53
2022-10-05T13:38:37.072Z,100633.56
2022-10-05T13:41:28.204Z,100571.06
2022-10-05T13:44:46.762Z,100633.56
2022-10-05T13:48:57.820Z,100618.84
2022-10-05T13:51:10.328Z,100621.53
2022-10-05T13:54:03.477Z,100612.81
2022-10-05T13:56:59.239Z,100559.72
2022-10-05T14:00:15.136Z,100611.13
2022-10-05T14:03:18.322Z,100557.22
2022-10-05T14:06:10.166Z,100619.84
2022-10-05T14:11:55.296Z,100572.06
2022-10-05T14:14:47.432Z,100605.91
2022-10-05T14:17:46.686Z,100615.47
2022-10-05T14:20:37.556Z,100598.25
2022-10-05T14:23:32.832Z,100574.75
2022-10-05T14:26:27.957Z,100616.53
2022-10-05T14:29:24.236Z,100607.97
2022-10-05T14:32:31.775Z,100602.69
2022-10-05T14:35:37.858Z,100610.59
2022-10-05T14:38:28.725Z,100620.03
2022-10-05T14:41:22.409Z,100614.78
2022-10-05T14:44:10.846Z,100613.94
2022-10-05T14:47:00.292Z,100593.94
2022-10-05T14:49:48.101Z,100626.84
2022-10-05T14:53:03.371Z,100621.69
2022-10-05T14:56:13.618Z,100607.78
2022-10-05T15:02:50.023Z,100595.72
2022-10-05T15:05:31.409Z,100593.09
2022-10-05T15:08:21.498Z,100579.28
2022-10-05T15:11:12.800Z,100574.94
2022-10-05T15:14:00.229Z,100557.56
2022-10-05T15:16:45.972Z,100543.50
2022-10-05T15:19:36.921Z,100550.22
2022-10-05T15:22:33.990Z,100539.84
2022-10-05T15:25:36.561Z,100520.72
2022-10-05T15:28:39.048Z,100548.59
2022-10-05T15:31:40.405Z,100545.13
2022-10-05T15:34:36.872Z,100543.34
2022-10-05T15:37:21.711Z,100547.69
2022-10-05T15:40:07.493Z,100551.97
2022-10-05T15:42:54.109Z,100555.41
2022-10-05T15:45:53.061Z,100545.94
2022-10-05T15:48:36.578Z,100536.47
2022-10-05T15:51:37.409Z,100544.19
2022-10-05T15:54:34.646Z,100555.47
2022-10-05T16:00:24.852Z,100538.06
2022-10-05T16:03:28.165Z,100545.03
2022-10-05T16:06:29.951Z,100544.25
2022-10-05T16:09:18.383Z,100470.31
2022-10-05T16:12:04.500Z,100553.66
2022-10-05T16:15:07.586Z,100525.91
2022-10-05T16:18:12.959Z,100497.25
2022-10-05T16:21:09.663Z,100495.63
2022-10-05T16:24:32.038Z,100521.66
2022-10-05T16:27:18.913Z,100520.91
2022-10-05T16:30:19.557Z,100513.94
2022-10-05T16:33:16.440Z,100515.66
2022-10-05T16:36:05.440Z,100523.50
2022-10-05T16:38:50.876Z,100510.56
2022-10-05T16:41:41.959Z,100511.41
2022-10-05T16:44:32.795Z,100523.50
2022-10-05T16:47:37.599Z,100527.81
2022-10-05T16:50:48.201Z,100524.38
2022-10-05T16:53:31.824Z,100512.13
2022-10-05T16:56:16.079Z,100524.25
2022-10-05T16:59:05.812Z,100502.59
2022-10-05T17:01:59.086Z,100502.75
2022-10-05T17:04:51.957Z,100494.94
2022-10-05T17:07:59.161Z,100510.50
2022-10-05T17:11:01.966Z,100500.09
2022-10-05T17:14:10.931Z,100511.31
2022-10-05T17:17:03.332Z,100523.38
2022-10-05T17:19:58.798Z,100525.94
2022-10-05T17:22:53.643Z,100451.13
2022-10-05T17:25:47.165Z,100534.47
2022-10-05T17:28:51.782Z,100517.06
2022-10-05T17:31:29.594Z,100511.81
2022-10-05T17:34:36.025Z,100544.78
2022-10-05T17:37:45.558Z,100551.72
2022-10-05T17:40:54.244Z,100528.22
2022-10-05T17:43:40.032Z,100531.78
2022-10-05T17:46:31.168Z,100551.75
2022-10-05T17:49:25.405Z,100549.16
2022-10-05T17:52:28.313Z,100558.66
2022-10-05T17:55:44.938Z,100559.50
2022-10-05T18:02:36.590Z,100546.59
2022-10-05T18:05:31.422Z,100526.72
2022-10-05T18:08:38.696Z,100516.38
2022-10-05T18:11:49.775Z,100498.22
2022-10-05T18:14:34.560Z,100406.09
2022-10-05T18:17:42.031Z,100498.06
2022-10-05T18:20:55.213Z,100518.84
2022-10-05T18:23:47.379Z,100540.16
2022-10-05T18:26:53.573Z,100580.69
2022-10-05T18:30:04.601Z,100592.16
2022-10-05T18:33:29.186Z,100594.44
2022-10-05T18:36:26.807Z,100579.97
2022-10-05T18:39:21.334Z,100576.00
2022-10-05T18:42:20.175Z,100569.28
2022-10-05T18:45:02.884Z,100565.06
2022-10-05T18:48:05.447Z,100551.44
2022-10-05T18:51:10.530Z,100488.09
2022-10-05T18:54:13.610Z,100507.94
2022-10-05T18:57:11.201Z,100539.34
2022-10-05T19:00:01.288Z,100559.19
2022-10-05T19:02:43.909Z,100569.47
2022-10-05T19:05:47.541Z,100577.16
2022-10-05T19:08:42.322Z,100574.44
2022-10-05T19:11:29.216Z,100574.34
2022-10-05T19:14:31.222Z,100576.94
2022-10-05T19:17:34.292Z,100573.44
2022-10-05T19:20:44.879Z,100568.28
2022-10-05T19:24:07.055Z,100564.94
2022-10-05T19:27:00.009Z,100565.00
2022-10-05T19:30:07.438Z,100578.78
2022-10-05T19:33:10.550Z,100564.91
2022-10-05T19:36:12.401Z,100575.94
2022-10-05T19:39:17.415Z,100481.19
2022-10-05T19:45:19.801Z,100474.19
2022-10-05T19:48:07.764Z,100540.16
2022-10-05T19:51:00.656Z,100555.06
2022-10-05T19:53:47.126Z,100560.28
2022-10-05T19:56:48.806Z,100472.38
2022-10-05T19:59:26.937Z,100575.91
2022-10-05T20:02:07.394Z,100583.84
2022-10-05T20:04:49.696Z,100581.25
2022-10-05T20:10:34.336Z,100601.19
2022-10-05T20:13:36.846Z,100519.22
2022-10-05T20:16:52.373Z,100602.72
2022-10-05T20:19:58.323Z,100539.94
2022-10-05T20:22:54.378Z,100512.94
2022-10-05T20:25:51.873Z,100592.09
2022-10-05T20:28:52.302Z,100531.94
2022-10-05T20:31:28.904Z,100593.66
2022-10-05T20:34:19.946Z,100593.47
2022-10-05T20:37:02.940Z,100581.25
2022-10-05T20:39:47.780Z,100628.19
2022-10-05T20:42:24.649Z,100638.53
2022-10-05T20:45:28.357Z,100638.66
2022-10-05T20:48:05.874Z,100641.31
2022-10-05T20:50:52.223Z,100650.81
2022-10-05T20:53:35.375Z,100634.41
2022-10-05T20:56:26.550Z,100636.00
2022-10-05T20:59:07.802Z,100641.34
2022-10-05T21:01:51.655Z,100632.63
2022-10-05T21:04:41.294Z,100602.19
2022-10-05T21:07:31.343Z,100576.22
2022-10-05T21:10:13.754Z,100626.75
2022-10-05T21:12:56.316Z,100557.28
2022-10-05T21:15:35.699Z,100635.69
2022-10-05T21:18:23.530Z,100641.66
2022-10-05T21:21:02.179Z,100646.78
2022-10-05T21:23:50.748Z,100630.38
2022-10-05T21:26:31.917Z,100646.13
2022-10-05T21:29:12.481Z,100643.00
2022-10-05T21:37:58.156Z,100639.66
2022-10-05T21:41:01.941Z,100685.66
2022-10-05T21:43:43.173Z,100690.13
2022-10-05T21:46:21.754Z,100703.19
2022-10-05T21:49:03.578Z,100698.03
2022-10-05T21:51:57.401Z,100703.38
2022-10-05T21:54:33.940Z,100706.91
2022-10-05T21:57:10.735Z,100705.19
2022-10-05T22:00:08.510Z,100710.22
2022-10-05T22:03:07.665Z,100711.53
2022-10-05T22:05:52.697Z,100714.59
2022-10-05T22:08:33.197Z,100665.91
2022-10-05T22:14:08.077Z,100714.78
2022-10-05T22:16:51.436Z,100699.31
2022-10-05T22:28:46.937Z,100623.66
2022-10-05T22:31:32.455Z,100692.53
2022-10-05T22:34:10.144Z,100701.25
2022-10-05T22:36:53.724Z,100705.06
2022-10-05T22:39:33.079Z,100700.53
2022-10-05T22:42:47.410Z,100707.13
2022-10-05T22:45:29.177Z,100713.81
2022-10-05T22:48:21.995Z,100660.47
2022-10-05T22:51:10.779Z,100710.13
2022-10-05T22:54:19.884Z,100680.50
2022-10-05T22:57:06.302Z,100707.31
2022-10-05T22:59:51.643Z,100722.69
2022-10-05T23:02:53.754Z,100711.22
2022-10-05T23:05:32.209Z,100717.16
2022-10-05T23:11:01.001Z,100691.09
2022-10-05T23:13:51.791Z,100691.50
2022-10-05T23:16:38.170Z,100700.72
2022-10-05T23:19:28.687Z,100692.41
2022-10-05T23:25:22.051Z,100662.94
2022-10-05T23:28:24.170Z,100705.16
2022-10-05T23:31:11.562Z,100714.72
2022-10-05T23:33:57.450Z,100707.81
2022-10-05T23:36:51.829Z,100708.88
2022-10-05T23:39:36.165Z,100728.88
2022-10-05T23:42:19.657Z,100718.53
2022-10-05T23:45:13.902Z,100711.84
2022-10-05T23:47:52.282Z,100700.59
2022-10-05T23:53:27.151Z,100701.38
